sensor_id;sensor_type;location;lat;lon;timestamp;temperature;humidity
37356;DHT22;48747;50.250;18.848;2024-02-23T00:00:13;9.10;99.90
37356;DHT22;48747;50.250;18.848;2024-02-23T00:02:16;9.10;99.90
37356;DHT22;48747;50.250;18.848;2024-02-23T00:04:19;9.10;99.90
37356;DHT22;48747;50.250;18.848;2024-02-23T00:06:22;9.10;99.90
37356;DHT22;48747;50.250;18.848;2024-02-23T00:08:29;9.10;99.90
37356;DHT22;48747;50.250;18.848;2024-02-23T00:10:32;9.10;99.90
37356;DHT22;48747;50.250;18.848;2024-02-23T00:12:35;9.10;99.90
37356;DHT22;48747;50.250;18.848;2024-02-23T00:14:38;9.10;99.90
37356;DHT22;48747;50.250;18.848;2024-02-23T00:16:41;9.10;99.90
37356;DHT22;48747;50.250;18.848;2024-02-23T00:18:44;9.10;99.90
37356;DHT22;48747;50.250;18.848;2024-02-23T00:20:47;9.10;99.90
37356;DHT22;48747;50.250;18.848;2024-02-23T00:22:50;9.10;99.90
37356;DHT22;48747;50.250;18.848;2024-02-23T00:24:54;9.10;99.90
37356;DHT22;48747;50.250;18.848;2024-02-23T00:26:56;9.00;99.90
37356;DHT22;48747;50.250;18.848;2024-02-23T00:28:59;9.00;99.90
37356;DHT22;48747;50.250;18.848;2024-02-23T00:31:03;9.00;99.90
37356;DHT22;48747;50.250;18.848;2024-02-23T00:33:06;8.90;99.90
37356;DHT22;48747;50.250;18.848;2024-02-23T00:35:09;8.90;99.90
37356;DHT22;48747;50.250;18.848;2024-02-23T00:37:12;8.90;99.90
37356;DHT22;48747;50.250;18.848;2024-02-23T00:39:15;8.90;99.90
37356;DHT22;48747;50.250;18.848;2024-02-23T00:41:18;9.00;99.90
37356;DHT22;48747;50.250;18.848;2024-02-23T00:43:21;8.90;99.90
37356;DHT22;48747;50.250;18.848;2024-02-23T00:45:24;8.90;99.90
37356;DHT22;48747;50.250;18.848;2024-02-23T00:47:27;8.90;99.90
37356;DHT22;48747;50.250;18.848;2024-02-23T00:49:31;8.90;99.90
37356;DHT22;48747;50.250;18.848;2024-02-23T00:51:34;8.90;99.90
37356;DHT22;48747;50.250;18.848;2024-02-23T00:53:37;8.90;99.90
37356;DHT22;48747;50.250;18.848;2024-02-23T00:55:40;9.00;99.90
37356;DHT22;48747;50.250;18.848;2024-02-23T00:57:43;8.90;99.90
37356;DHT22;48747;50.250;18.848;2024-02-23T00:59:47;9.00;99.90
37356;DHT22;48747;50.250;18.848;2024-02-23T01:01:50;9.00;99.90
37356;DHT22;48747;50.250;18.848;2024-02-23T01:03:53;8.90;99.90
37356;DHT22;48747;50.250;18.848;2024-02-23T01:05:56;9.00;99.90
37356;DHT22;48747;50.250;18.848;2024-02-23T01:07:59;9.00;99.90
37356;DHT22;48747;50.250;18.848;2024-02-23T01:10:02;9.10;99.90
37356;DHT22;48747;50.250;18.848;2024-02-23T01:12:05;9.10;99.90
37356;DHT22;48747;50.250;18.848;2024-02-23T01:14:08;9.10;99.90
37356;DHT22;48747;50.250;18.848;2024-02-23T01:16:11;9.10;99.90
37356;DHT22;48747;50.250;18.848;2024-02-23T01:18:14;9.10;99.90
37356;DHT22;48747;50.250;18.848;2024-02-23T01:20:18;9.10;99.90
37356;DHT22;48747;50.250;18.848;2024-02-23T01:22:21;9.20;99.90
37356;DHT22;48747;50.250;18.848;2024-02-23T01:24:24;9.20;99.90
37356;DHT22;48747;50.250;18.848;2024-02-23T01:26:29;9.20;99.90
37356;DHT22;48747;50.250;18.848;2024-02-23T01:28:32;9.20;99.90
37356;DHT22;48747;50.250;18.848;2024-02-23T01:30:35;9.20;99.90
37356;DHT22;48747;50.250;18.848;2024-02-23T01:32:38;9.20;99.90
37356;DHT22;48747;50.250;18.848;2024-02-23T01:34:41;9.20;99.90
37356;DHT22;48747;50.250;18.848;2024-02-23T01:36:44;9.20;99.90
37356;DHT22;48747;50.250;18.848;2024-02-23T01:38:47;9.20;99.90
37356;DHT22;48747;50.250;18.848;2024-02-23T01:40:50;9.20;99.90
37356;DHT22;48747;50.250;18.848;2024-02-23T01:43:03;9.20;99.90
37356;DHT22;48747;50.250;18.848;2024-02-23T01:45:07;9.20;99.90
37356;DHT22;48747;50.250;18.848;2024-02-23T01:47:10;9.20;99.90
37356;DHT22;48747;50.250;18.848;2024-02-23T01:49:14;9.20;99.90
37356;DHT22;48747;50.250;18.848;2024-02-23T01:51:17;9.20;99.90
37356;DHT22;48747;50.250;18.848;2024-02-23T01:53:20;9.20;99.90
37356;DHT22;48747;50.250;18.848;2024-02-23T01:55:23;9.20;99.90
37356;DHT22;48747;50.250;18.848;2024-02-23T01:57:26;9.20;99.90
37356;DHT22;48747;50.250;18.848;2024-02-23T01:59:30;9.20;99.90
37356;DHT22;48747;50.250;18.848;2024-02-23T02:01:33;9.20;99.90
37356;DHT22;48747;50.250;18.848;2024-02-23T02:03:39;9.20;99.90
37356;DHT22;48747;50.250;18.848;2024-02-23T02:05:42;9.20;99.90
37356;DHT22;48747;50.250;18.848;2024-02-23T02:07:49;9.10;99.90
37356;DHT22;48747;50.250;18.848;2024-02-23T02:09:54;9.10;99.90
37356;DHT22;48747;50.250;18.848;2024-02-23T02:11:57;9.10;99.90
37356;DHT22;48747;50.250;18.848;2024-02-23T02:14:00;9.10;99.90
37356;DHT22;48747;50.250;18.848;2024-02-23T02:16:03;9.10;99.90
37356;DHT22;48747;50.250;18.848;2024-02-23T02:18:06;9.10;99.90
37356;DHT22;48747;50.250;18.848;2024-02-23T02:20:11;9.00;99.90
37356;DHT22;48747;50.250;18.848;2024-02-23T02:22:15;9.10;99.90
37356;DHT22;48747;50.250;18.848;2024-02-23T02:24:18;9.10;99.90
37356;DHT22;48747;50.250;18.848;2024-02-23T02:26:21;9.10;99.90
37356;DHT22;48747;50.250;18.848;2024-02-23T02:28:24;9.10;99.90
37356;DHT22;48747;50.250;18.848;2024-02-23T02:30:28;9.10;99.90
37356;DHT22;48747;50.250;18.848;2024-02-23T02:32:31;9.00;99.90
37356;DHT22;48747;50.250;18.848;2024-02-23T02:34:34;9.10;99.90
37356;DHT22;48747;50.250;18.848;2024-02-23T02:36:37;9.00;99.90
37356;DHT22;48747;50.250;18.848;2024-02-23T02:38:40;9.00;99.90
37356;DHT22;48747;50.250;18.848;2024-02-23T02:40:43;9.00;99.90
37356;DHT22;48747;50.250;18.848;2024-02-23T02:42:46;9.10;99.90
37356;DHT22;48747;50.250;18.848;2024-02-23T02:44:49;9.00;99.90
37356;DHT22;48747;50.250;18.848;2024-02-23T02:46:52;9.00;99.90
37356;DHT22;48747;50.250;18.848;2024-02-23T02:48:55;8.90;99.90
37356;DHT22;48747;50.250;18.848;2024-02-23T02:50:58;8.90;99.90
37356;DHT22;48747;50.250;18.848;2024-02-23T02:53:01;8.90;99.90
37356;DHT22;48747;50.250;18.848;2024-02-23T02:55:04;8.90;99.90
37356;DHT22;48747;50.250;18.848;2024-02-23T02:57:07;8.90;99.90
37356;DHT22;48747;50.250;18.848;2024-02-23T02:59:10;8.90;99.90
37356;DHT22;48747;50.250;18.848;2024-02-23T03:01:13;8.90;99.90
37356;DHT22;48747;50.250;18.848;2024-02-23T03:03:16;8.90;99.90
37356;DHT22;48747;50.250;18.848;2024-02-23T03:05:19;8.80;99.90
37356;DHT22;48747;50.250;18.848;2024-02-23T03:07:22;8.80;99.90
37356;DHT22;48747;50.250;18.848;2024-02-23T03:09:25;8.80;99.90
37356;DHT22;48747;50.250;18.848;2024-02-23T03:11:28;8.80;99.90
37356;DHT22;48747;50.250;18.848;2024-02-23T03:13:31;8.80;99.90
37356;DHT22;48747;50.250;18.848;2024-02-23T03:15:34;8.70;99.90
37356;DHT22;48747;50.250;18.848;2024-02-23T03:17:38;8.70;99.90
37356;DHT22;48747;50.250;18.848;2024-02-23T03:19:41;8.70;99.90
37356;DHT22;48747;50.250;18.848;2024-02-23T03:21:44;8.70;99.90
37356;DHT22;48747;50.250;18.848;2024-02-23T03:23:47;8.60;99.90
37356;DHT22;48747;50.250;18.848;2024-02-23T03:25:50;8.60;99.90
37356;DHT22;48747;50.250;18.848;2024-02-23T03:27:53;8.60;99.90
37356;DHT22;48747;50.250;18.848;2024-02-23T03:29:56;8.60;99.90
37356;DHT22;48747;50.250;18.848;2024-02-23T03:31:59;8.60;99.90
37356;DHT22;48747;50.250;18.848;2024-02-23T03:34:03;8.50;99.90
37356;DHT22;48747;50.250;18.848;2024-02-23T03:36:06;8.50;99.90
37356;DHT22;48747;50.250;18.848;2024-02-23T03:38:10;8.50;99.90
37356;DHT22;48747;50.250;18.848;2024-02-23T03:40:13;8.50;99.90
37356;DHT22;48747;50.250;18.848;2024-02-23T03:42:16;8.50;99.90
37356;DHT22;48747;50.250;18.848;2024-02-23T03:44:19;8.50;99.90
37356;DHT22;48747;50.250;18.848;2024-02-23T03:46:22;8.50;99.90
37356;DHT22;48747;50.250;18.848;2024-02-23T03:48:25;8.50;99.90
37356;DHT22;48747;50.250;18.848;2024-02-23T03:50:28;8.50;99.90
37356;DHT22;48747;50.250;18.848;2024-02-23T03:52:31;8.50;99.90
37356;DHT22;48747;50.250;18.848;2024-02-23T03:54:34;8.40;99.90
37356;DHT22;48747;50.250;18.848;2024-02-23T03:56:41;8.40;99.90
37356;DHT22;48747;50.250;18.848;2024-02-23T03:58:44;8.40;99.90
37356;DHT22;48747;50.250;18.848;2024-02-23T04:00:47;8.40;99.90
37356;DHT22;48747;50.250;18.848;2024-02-23T04:02:50;8.40;99.90
37356;DHT22;48747;50.250;18.848;2024-02-23T04:04:54;8.40;99.90
37356;DHT22;48747;50.250;18.848;2024-02-23T04:06:57;8.30;99.90
37356;DHT22;48747;50.250;18.848;2024-02-23T04:09:00;8.30;99.90
37356;DHT22;48747;50.250;18.848;2024-02-23T04:11:03;8.30;99.90
37356;DHT22;48747;50.250;18.848;2024-02-23T04:13:06;8.30;99.90
37356;DHT22;48747;50.250;18.848;2024-02-23T04:15:10;8.30;99.90
37356;DHT22;48747;50.250;18.848;2024-02-23T04:17:13;8.30;99.90
37356;DHT22;48747;50.250;18.848;2024-02-23T04:19:17;8.30;99.90
37356;DHT22;48747;50.250;18.848;2024-02-23T04:21:21;8.20;99.90
37356;DHT22;48747;50.250;18.848;2024-02-23T04:23:24;8.20;99.90
37356;DHT22;48747;50.250;18.848;2024-02-23T04:25:27;8.20;99.90
37356;DHT22;48747;50.250;18.848;2024-02-23T04:27:30;8.20;99.90
37356;DHT22;48747;50.250;18.848;2024-02-23T04:29:34;8.20;99.90
37356;DHT22;48747;50.250;18.848;2024-02-23T04:31:37;8.20;99.90
37356;DHT22;48747;50.250;18.848;2024-02-23T04:33:40;8.20;99.90
37356;DHT22;48747;50.250;18.848;2024-02-23T04:35:43;8.20;99.90
37356;DHT22;48747;50.250;18.848;2024-02-23T04:37:46;8.20;99.90
37356;DHT22;48747;50.250;18.848;2024-02-23T04:39:51;8.10;99.90
37356;DHT22;48747;50.250;18.848;2024-02-23T04:41:54;8.10;99.90
37356;DHT22;48747;50.250;18.848;2024-02-23T04:43:57;8.10;99.90
37356;DHT22;48747;50.250;18.848;2024-02-23T04:46:02;8.10;99.90
37356;DHT22;48747;50.250;18.848;2024-02-23T04:48:05;8.10;99.90
37356;DHT22;48747;50.250;18.848;2024-02-23T04:50:08;8.10;99.90
37356;DHT22;48747;50.250;18.848;2024-02-23T04:52:12;8.00;99.90
37356;DHT22;48747;50.250;18.848;2024-02-23T04:54:15;8.00;99.90
37356;DHT22;48747;50.250;18.848;2024-02-23T04:56:17;8.00;99.90
37356;DHT22;48747;50.250;18.848;2024-02-23T04:58:21;8.00;99.90
37356;DHT22;48747;50.250;18.848;2024-02-23T05:00:24;8.00;99.90
37356;DHT22;48747;50.250;18.848;2024-02-23T05:02:28;8.00;99.90
37356;DHT22;48747;50.250;18.848;2024-02-23T05:04:33;8.00;99.90
37356;DHT22;48747;50.250;18.848;2024-02-23T05:06:36;8.00;99.90
37356;DHT22;48747;50.250;18.848;2024-02-23T05:08:39;7.90;99.90
37356;DHT22;48747;50.250;18.848;2024-02-23T05:10:42;7.90;99.90
37356;DHT22;48747;50.250;18.848;2024-02-23T05:12:45;7.90;99.90
37356;DHT22;48747;50.250;18.848;2024-02-23T05:14:48;7.90;99.90
37356;DHT22;48747;50.250;18.848;2024-02-23T05:16:51;7.90;99.90
37356;DHT22;48747;50.250;18.848;2024-02-23T05:18:54;7.80;99.90
37356;DHT22;48747;50.250;18.848;2024-02-23T05:20:58;7.90;99.90
37356;DHT22;48747;50.250;18.848;2024-02-23T05:23:01;7.80;99.90
37356;DHT22;48747;50.250;18.848;2024-02-23T05:25:04;7.80;99.90
37356;DHT22;48747;50.250;18.848;2024-02-23T05:27:07;7.80;99.90
37356;DHT22;48747;50.250;18.848;2024-02-23T05:29:10;7.80;99.90
37356;DHT22;48747;50.250;18.848;2024-02-23T05:31:14;7.80;99.90
37356;DHT22;48747;50.250;18.848;2024-02-23T05:33:17;7.80;99.90
37356;DHT22;48747;50.250;18.848;2024-02-23T05:35:22;7.80;99.90
37356;DHT22;48747;50.250;18.848;2024-02-23T05:37:27;7.80;99.90
37356;DHT22;48747;50.250;18.848;2024-02-23T05:39:30;7.80;99.90
37356;DHT22;48747;50.250;18.848;2024-02-23T05:41:34;7.70;99.90
37356;DHT22;48747;50.250;18.848;2024-02-23T05:43:37;7.70;99.90
37356;DHT22;48747;50.250;18.848;2024-02-23T05:45:40;7.70;99.90
37356;DHT22;48747;50.250;18.848;2024-02-23T05:47:43;7.70;99.90
37356;DHT22;48747;50.250;18.848;2024-02-23T05:49:46;7.70;99.90
37356;DHT22;48747;50.250;18.848;2024-02-23T05:51:49;7.70;99.90
37356;DHT22;48747;50.250;18.848;2024-02-23T05:53:52;7.70;99.90
37356;DHT22;48747;50.250;18.848;2024-02-23T05:55:55;7.70;99.90
37356;DHT22;48747;50.250;18.848;2024-02-23T05:57:58;7.70;99.90
37356;DHT22;48747;50.250;18.848;2024-02-23T06:00:02;7.70;99.90
37356;DHT22;48747;50.250;18.848;2024-02-23T06:02:05;7.70;99.90
37356;DHT22;48747;50.250;18.848;2024-02-23T06:04:08;7.70;99.90
37356;DHT22;48747;50.250;18.848;2024-02-23T06:06:11;7.70;99.90
37356;DHT22;48747;50.250;18.848;2024-02-23T06:08:14;7.70;99.90
37356;DHT22;48747;50.250;18.848;2024-02-23T06:10:17;7.70;99.90
37356;DHT22;48747;50.250;18.848;2024-02-23T06:12:20;7.70;99.90
37356;DHT22;48747;50.250;18.848;2024-02-23T06:14:23;7.70;99.90
37356;DHT22;48747;50.250;18.848;2024-02-23T06:16:26;7.70;99.90
37356;DHT22;48747;50.250;18.848;2024-02-23T06:18:29;7.60;99.90
37356;DHT22;48747;50.250;18.848;2024-02-23T06:20:32;7.70;99.90
37356;DHT22;48747;50.250;18.848;2024-02-23T06:22:35;7.70;99.90
37356;DHT22;48747;50.250;18.848;2024-02-23T06:24:39;7.70;99.90
37356;DHT22;48747;50.250;18.848;2024-02-23T06:26:42;7.70;99.90
37356;DHT22;48747;50.250;18.848;2024-02-23T06:28:45;7.70;99.90
37356;DHT22;48747;50.250;18.848;2024-02-23T06:30:48;7.70;99.90
37356;DHT22;48747;50.250;18.848;2024-02-23T06:32:52;7.70;99.90
37356;DHT22;48747;50.250;18.848;2024-02-23T06:34:55;7.70;99.90
37356;DHT22;48747;50.250;18.848;2024-02-23T06:36:58;7.70;99.90
37356;DHT22;48747;50.250;18.848;2024-02-23T06:39:01;7.70;99.90
37356;DHT22;48747;50.250;18.848;2024-02-23T06:41:04;7.70;99.90
37356;DHT22;48747;50.250;18.848;2024-02-23T06:43:09;7.70;99.90
37356;DHT22;48747;50.250;18.848;2024-02-23T06:45:15;7.70;99.90
37356;DHT22;48747;50.250;18.848;2024-02-23T06:47:18;7.70;99.90
37356;DHT22;48747;50.250;18.848;2024-02-23T06:49:26;7.70;99.90
37356;DHT22;48747;50.250;18.848;2024-02-23T06:51:26;7.70;99.90
37356;DHT22;48747;50.250;18.848;2024-02-23T06:53:33;7.70;99.90
37356;DHT22;48747;50.250;18.848;2024-02-23T06:55:42;7.70;99.90
37356;DHT22;48747;50.250;18.848;2024-02-23T06:57:45;7.70;99.90
37356;DHT22;48747;50.250;18.848;2024-02-23T06:59:54;7.70;99.90
37356;DHT22;48747;50.250;18.848;2024-02-23T07:01:56;7.70;99.90
37356;DHT22;48747;50.250;18.848;2024-02-23T07:03:59;7.70;99.90
37356;DHT22;48747;50.250;18.848;2024-02-23T07:06:03;7.70;99.90
37356;DHT22;48747;50.250;18.848;2024-02-23T07:08:11;7.80;99.90
37356;DHT22;48747;50.250;18.848;2024-02-23T07:10:14;7.80;99.90
37356;DHT22;48747;50.250;18.848;2024-02-23T07:12:19;7.90;99.90
37356;DHT22;48747;50.250;18.848;2024-02-23T07:14:22;7.90;99.90
37356;DHT22;48747;50.250;18.848;2024-02-23T07:16:25;7.90;99.90
37356;DHT22;48747;50.250;18.848;2024-02-23T07:18:30;7.90;99.90
37356;DHT22;48747;50.250;18.848;2024-02-23T07:20:36;7.90;99.90
37356;DHT22;48747;50.250;18.848;2024-02-23T07:22:42;8.00;99.90
37356;DHT22;48747;50.250;18.848;2024-02-23T07:24:46;8.00;99.90
37356;DHT22;48747;50.250;18.848;2024-02-23T07:26:49;7.90;99.90
37356;DHT22;48747;50.250;18.848;2024-02-23T07:28:52;8.00;99.90
37356;DHT22;48747;50.250;18.848;2024-02-23T07:30:58;8.00;99.90
37356;DHT22;48747;50.250;18.848;2024-02-23T07:33:01;8.00;99.90
37356;DHT22;48747;50.250;18.848;2024-02-23T07:35:05;8.00;99.90
37356;DHT22;48747;50.250;18.848;2024-02-23T07:37:08;8.00;99.90
37356;DHT22;48747;50.250;18.848;2024-02-23T07:39:12;8.00;99.90
37356;DHT22;48747;50.250;18.848;2024-02-23T07:41:15;8.00;99.90
37356;DHT22;48747;50.250;18.848;2024-02-23T07:43:21;8.00;99.90
37356;DHT22;48747;50.250;18.848;2024-02-23T07:45:26;8.10;99.90
37356;DHT22;48747;50.250;18.848;2024-02-23T07:47:30;8.10;99.90
37356;DHT22;48747;50.250;18.848;2024-02-23T07:49:33;8.10;99.90
37356;DHT22;48747;50.250;18.848;2024-02-23T07:51:36;8.20;99.90
37356;DHT22;48747;50.250;18.848;2024-02-23T07:53:39;8.10;99.90
37356;DHT22;48747;50.250;18.848;2024-02-23T07:55:42;8.20;99.90
37356;DHT22;48747;50.250;18.848;2024-02-23T07:57:54;8.20;99.90
37356;DHT22;48747;50.250;18.848;2024-02-23T07:59:53;8.20;99.90
37356;DHT22;48747;50.250;18.848;2024-02-23T08:01:56;8.20;99.90
37356;DHT22;48747;50.250;18.848;2024-02-23T08:03:59;8.30;99.90
37356;DHT22;48747;50.250;18.848;2024-02-23T08:06:02;8.30;99.90
37356;DHT22;48747;50.250;18.848;2024-02-23T08:08:07;8.30;99.90
37356;DHT22;48747;50.250;18.848;2024-02-23T08:10:15;8.30;99.90
37356;DHT22;48747;50.250;18.848;2024-02-23T08:12:20;8.30;99.90
37356;DHT22;48747;50.250;18.848;2024-02-23T08:14:19;8.40;99.90
37356;DHT22;48747;50.250;18.848;2024-02-23T08:16:22;8.30;99.90
37356;DHT22;48747;50.250;18.848;2024-02-23T08:18:26;8.40;99.90
37356;DHT22;48747;50.250;18.848;2024-02-23T08:20:29;8.40;99.90
37356;DHT22;48747;50.250;18.848;2024-02-23T08:22:32;8.50;99.90
37356;DHT22;48747;50.250;18.848;2024-02-23T08:24:37;8.50;99.90
37356;DHT22;48747;50.250;18.848;2024-02-23T08:26:45;8.50;99.90
37356;DHT22;48747;50.250;18.848;2024-02-23T08:28:44;8.50;99.90
37356;DHT22;48747;50.250;18.848;2024-02-23T08:30:47;8.50;99.90
37356;DHT22;48747;50.250;18.848;2024-02-23T08:32:50;8.50;99.90
37356;DHT22;48747;50.250;18.848;2024-02-23T08:34:54;8.50;99.90
37356;DHT22;48747;50.250;18.848;2024-02-23T08:36:58;8.50;99.90
37356;DHT22;48747;50.250;18.848;2024-02-23T08:39:01;8.50;99.90
37356;DHT22;48747;50.250;18.848;2024-02-23T08:41:05;8.60;99.90
37356;DHT22;48747;50.250;18.848;2024-02-23T08:43:08;8.60;99.90
37356;DHT22;48747;50.250;18.848;2024-02-23T08:45:11;8.60;99.90
37356;DHT22;48747;50.250;18.848;2024-02-23T08:47:15;8.60;99.90
37356;DHT22;48747;50.250;18.848;2024-02-23T08:49:18;8.70;99.90
37356;DHT22;48747;50.250;18.848;2024-02-23T08:51:21;8.60;99.90
37356;DHT22;48747;50.250;18.848;2024-02-23T08:53:24;8.70;99.90
37356;DHT22;48747;50.250;18.848;2024-02-23T08:55:27;8.70;99.90
37356;DHT22;48747;50.250;18.848;2024-02-23T08:57:30;8.70;99.90
37356;DHT22;48747;50.250;18.848;2024-02-23T08:59:34;8.80;99.90
37356;DHT22;48747;50.250;18.848;2024-02-23T09:01:37;8.80;99.90
37356;DHT22;48747;50.250;18.848;2024-02-23T09:03:45;8.80;99.90
37356;DHT22;48747;50.250;18.848;2024-02-23T09:05:44;8.80;99.90
37356;DHT22;48747;50.250;18.848;2024-02-23T09:07:49;8.80;99.90
37356;DHT22;48747;50.250;18.848;2024-02-23T09:09:52;8.90;99.90
37356;DHT22;48747;50.250;18.848;2024-02-23T09:11:57;8.90;99.90
37356;DHT22;48747;50.250;18.848;2024-02-23T09:14:00;8.90;99.90
37356;DHT22;48747;50.250;18.848;2024-02-23T09:16:03;8.90;99.90
37356;DHT22;48747;50.250;18.848;2024-02-23T09:18:09;9.00;99.90
37356;DHT22;48747;50.250;18.848;2024-02-23T09:20:14;9.00;99.90
37356;DHT22;48747;50.250;18.848;2024-02-23T09:22:16;9.10;99.90
37356;DHT22;48747;50.250;18.848;2024-02-23T09:24:19;9.20;99.90
37356;DHT22;48747;50.250;18.848;2024-02-23T09:26:22;9.20;99.90
37356;DHT22;48747;50.250;18.848;2024-02-23T09:28:25;9.30;99.90
37356;DHT22;48747;50.250;18.848;2024-02-23T09:30:28;9.40;99.90
37356;DHT22;48747;50.250;18.848;2024-02-23T09:32:31;9.50;99.90
37356;DHT22;48747;50.250;18.848;2024-02-23T09:34:34;9.60;99.90
37356;DHT22;48747;50.250;18.848;2024-02-23T09:36:39;9.70;99.90
37356;DHT22;48747;50.250;18.848;2024-02-23T09:38:44;9.70;99.90
37356;DHT22;48747;50.250;18.848;2024-02-23T09:40:53;9.80;99.90
37356;DHT22;48747;50.250;18.848;2024-02-23T09:42:57;9.90;99.90
37356;DHT22;48747;50.250;18.848;2024-02-23T09:45:04;9.90;99.90
37356;DHT22;48747;50.250;18.848;2024-02-23T09:47:06;10.00;99.90
37356;DHT22;48747;50.250;18.848;2024-02-23T09:49:15;10.00;99.90
37356;DHT22;48747;50.250;18.848;2024-02-23T09:51:20;10.10;99.90
37356;DHT22;48747;50.250;18.848;2024-02-23T09:53:23;10.10;99.90
37356;DHT22;48747;50.250;18.848;2024-02-23T09:55:26;10.10;99.90
37356;DHT22;48747;50.250;18.848;2024-02-23T09:57:30;10.20;99.90
37356;DHT22;48747;50.250;18.848;2024-02-23T09:59:34;10.20;99.90
37356;DHT22;48747;50.250;18.848;2024-02-23T10:01:42;10.20;99.90
37356;DHT22;48747;50.250;18.848;2024-02-23T10:03:42;10.20;99.90
37356;DHT22;48747;50.250;18.848;2024-02-23T10:05:45;10.20;99.90
37356;DHT22;48747;50.250;18.848;2024-02-23T10:07:50;10.20;99.90
37356;DHT22;48747;50.250;18.848;2024-02-23T10:09:56;10.20;99.90
37356;DHT22;48747;50.250;18.848;2024-02-23T10:12:02;10.20;99.90
37356;DHT22;48747;50.250;18.848;2024-02-23T10:14:05;10.10;99.90
37356;DHT22;48747;50.250;18.848;2024-02-23T10:16:09;10.10;99.90
37356;DHT22;48747;50.250;18.848;2024-02-23T10:18:12;10.00;99.90
37356;DHT22;48747;50.250;18.848;2024-02-23T10:20:15;10.00;99.90
37356;DHT22;48747;50.250;18.848;2024-02-23T10:22:19;10.00;99.90
37356;DHT22;48747;50.250;18.848;2024-02-23T10:24:23;10.00;99.90
37356;DHT22;48747;50.250;18.848;2024-02-23T10:26:27;10.10;99.90
37356;DHT22;48747;50.250;18.848;2024-02-23T10:28:30;10.10;99.90
37356;DHT22;48747;50.250;18.848;2024-02-23T10:30:37;10.00;99.90
37356;DHT22;48747;50.250;18.848;2024-02-23T10:32:43;10.00;99.90
37356;DHT22;48747;50.250;18.848;2024-02-23T10:34:48;10.00;99.90
37356;DHT22;48747;50.250;18.848;2024-02-23T10:36:53;10.10;99.90
37356;DHT22;48747;50.250;18.848;2024-02-23T10:38:58;10.10;99.90
37356;DHT22;48747;50.250;18.848;2024-02-23T10:41:05;10.10;99.90
37356;DHT22;48747;50.250;18.848;2024-02-23T10:43:15;10.10;99.90
37356;DHT22;48747;50.250;18.848;2024-02-23T10:45:19;10.10;99.90
37356;DHT22;48747;50.250;18.848;2024-02-23T10:47:24;10.10;99.90
37356;DHT22;48747;50.250;18.848;2024-02-23T10:49:28;10.10;99.90
37356;DHT22;48747;50.250;18.848;2024-02-23T10:51:39;10.00;99.90
37356;DHT22;48747;50.250;18.848;2024-02-23T10:53:40;10.00;99.90
37356;DHT22;48747;50.250;18.848;2024-02-23T10:55:44;9.90;99.90
37356;DHT22;48747;50.250;18.848;2024-02-23T10:57:48;9.90;99.90
37356;DHT22;48747;50.250;18.848;2024-02-23T10:59:53;9.80;99.90
37356;DHT22;48747;50.250;18.848;2024-02-23T11:01:57;9.90;99.90
37356;DHT22;48747;50.250;18.848;2024-02-23T11:04:02;9.80;99.90
37356;DHT22;48747;50.250;18.848;2024-02-23T11:06:08;9.80;99.90
37356;DHT22;48747;50.250;18.848;2024-02-23T11:08:14;9.70;99.90
37356;DHT22;48747;50.250;18.848;2024-02-23T11:10:17;9.70;99.90
37356;DHT22;48747;50.250;18.848;2024-02-23T11:12:26;9.70;99.90
37356;DHT22;48747;50.250;18.848;2024-02-23T11:14:34;9.60;99.90
37356;DHT22;48747;50.250;18.848;2024-02-23T11:16:39;9.60;99.90
37356;DHT22;48747;50.250;18.848;2024-02-23T11:18:43;9.60;99.90
37356;DHT22;48747;50.250;18.848;2024-02-23T11:20:55;9.60;99.90
37356;DHT22;48747;50.250;18.848;2024-02-23T11:23:12;9.60;99.90
37356;DHT22;48747;50.250;18.848;2024-02-23T11:25:09;9.60;99.90
37356;DHT22;48747;50.250;18.848;2024-02-23T11:27:16;9.50;99.90
37356;DHT22;48747;50.250;18.848;2024-02-23T11:29:20;9.60;99.90
37356;DHT22;48747;50.250;18.848;2024-02-23T11:31:24;9.60;99.90
37356;DHT22;48747;50.250;18.848;2024-02-23T11:33:37;9.60;99.90
37356;DHT22;48747;50.250;18.848;2024-02-23T11:35:46;9.50;99.90
37356;DHT22;48747;50.250;18.848;2024-02-23T11:37:54;9.50;99.90
37356;DHT22;48747;50.250;18.848;2024-02-23T11:40:05;9.50;99.90
37356;DHT22;48747;50.250;18.848;2024-02-23T11:42:15;9.60;99.90
37356;DHT22;48747;50.250;18.848;2024-02-23T11:44:18;9.60;99.90
37356;DHT22;48747;50.250;18.848;2024-02-23T11:46:22;9.70;99.90
37356;DHT22;48747;50.250;18.848;2024-02-23T11:48:25;9.70;99.90
37356;DHT22;48747;50.250;18.848;2024-02-23T11:50:29;9.70;99.90
37356;DHT22;48747;50.250;18.848;2024-02-23T11:52:49;9.80;99.90
37356;DHT22;48747;50.250;18.848;2024-02-23T11:54:39;9.80;99.90
37356;DHT22;48747;50.250;18.848;2024-02-23T11:56:47;9.90;99.90
37356;DHT22;48747;50.250;18.848;2024-02-23T11:58:50;9.90;99.90
37356;DHT22;48747;50.250;18.848;2024-02-23T12:00:55;9.90;99.90
37356;DHT22;48747;50.250;18.848;2024-02-23T12:03:00;9.90;99.90
37356;DHT22;48747;50.250;18.848;2024-02-23T12:05:05;9.90;99.90
37356;DHT22;48747;50.250;18.848;2024-02-23T12:07:10;9.80;99.90
37356;DHT22;48747;50.250;18.848;2024-02-23T12:09:17;9.70;99.90
37356;DHT22;48747;50.250;18.848;2024-02-23T12:11:26;9.70;99.90
37356;DHT22;48747;50.250;18.848;2024-02-23T12:13:26;9.70;99.90
37356;DHT22;48747;50.250;18.848;2024-02-23T12:15:30;9.70;99.90
37356;DHT22;48747;50.250;18.848;2024-02-23T12:17:37;9.70;99.90
37356;DHT22;48747;50.250;18.848;2024-02-23T12:19:42;9.80;99.90
37356;DHT22;48747;50.250;18.848;2024-02-23T12:21:45;9.80;99.90
37356;DHT22;48747;50.250;18.848;2024-02-23T12:23:55;9.80;99.90
37356;DHT22;48747;50.250;18.848;2024-02-23T12:25:56;9.90;99.90
37356;DHT22;48747;50.250;18.848;2024-02-23T12:28:01;9.90;99.90
37356;DHT22;48747;50.250;18.848;2024-02-23T12:30:05;9.90;99.90
37356;DHT22;48747;50.250;18.848;2024-02-23T12:32:10;9.90;99.90
37356;DHT22;48747;50.250;18.848;2024-02-23T12:34:15;9.90;99.90
37356;DHT22;48747;50.250;18.848;2024-02-23T12:36:28;9.90;99.90
37356;DHT22;48747;50.250;18.848;2024-02-23T12:38:27;10.00;99.90
37356;DHT22;48747;50.250;18.848;2024-02-23T12:40:31;10.10;99.90
37356;DHT22;48747;50.250;18.848;2024-02-23T12:42:34;10.10;99.90
37356;DHT22;48747;50.250;18.848;2024-02-23T12:44:37;10.20;99.90
37356;DHT22;48747;50.250;18.848;2024-02-23T12:46:42;10.20;99.90
37356;DHT22;48747;50.250;18.848;2024-02-23T12:48:45;10.20;99.90
37356;DHT22;48747;50.250;18.848;2024-02-23T12:50:48;10.20;99.90
37356;DHT22;48747;50.250;18.848;2024-02-23T12:52:52;10.20;99.90
37356;DHT22;48747;50.250;18.848;2024-02-23T12:54:57;10.30;99.90
37356;DHT22;48747;50.250;18.848;2024-02-23T12:57:01;10.30;99.90
37356;DHT22;48747;50.250;18.848;2024-02-23T12:59:04;10.40;99.90
37356;DHT22;48747;50.250;18.848;2024-02-23T13:01:08;10.40;99.90